sensor_id;sensor_type;location;lat;lon;timestamp;P1;durP1;ratioP1;P2;durP2;ratioP2
44816;SDS011;30529;53.570;9.964;2022-12-18T00:03:52;14.43;;;7.87;;
44816;SDS011;30529;53.570;9.964;2022-12-18T00:06:20;12.70;;;7.30;;
44816;SDS011;30529;53.570;9.964;2022-12-18T00:08:46;12.90;;;7.43;;
44816;SDS011;30529;53.570;9.964;2022-12-18T00:11:14;19.60;;;9.13;;
44816;SDS011;30529;53.570;9.964;2022-12-18T00:13:42;16.33;;;8.27;;
44816;SDS011;30529;53.570;9.964;2022-12-18T00:16:09;18.90;;;8.70;;
44816;SDS011;30529;53.570;9.964;2022-12-18T00:18:36;12.73;;;7.80;;
44816;SDS011;30529;53.570;9.964;2022-12-18T00:21:04;16.83;;;7.93;;
44816;SDS011;30529;53.570;9.964;2022-12-18T00:23:32;12.80;;;8.00;;
44816;SDS011;30529;53.570;9.964;2022-12-18T00:26:03;16.47;;;9.23;;
44816;SDS011;30529;53.570;9.964;2022-12-18T00:28:40;14.10;;;7.77;;
44816;SDS011;30529;53.570;9.964;2022-12-18T00:31:08;14.70;;;7.90;;
44816;SDS011;30529;53.570;9.964;2022-12-18T00:33:36;16.20;;;7.93;;
44816;SDS011;30529;53.570;9.964;2022-12-18T00:36:06;13.20;;;7.43;;
44816;SDS011;30529;53.570;9.964;2022-12-18T00:38:35;11.40;;;7.07;;
44816;SDS011;30529;53.570;9.964;2022-12-18T00:41:02;12.17;;;7.67;;
44816;SDS011;30529;53.570;9.964;2022-12-18T00:43:29;15.77;;;7.50;;
44816;SDS011;30529;53.570;9.964;2022-12-18T00:45:55;25.17;;;13.57;;
44816;SDS011;30529;53.570;9.964;2022-12-18T00:48:21;18.30;;;11.10;;
44816;SDS011;30529;53.570;9.964;2022-12-18T00:50:47;13.50;;;8.27;;
44816;SDS011;30529;53.570;9.964;2022-12-18T00:53:16;13.73;;;7.40;;
44816;SDS011;30529;53.570;9.964;2022-12-18T00:55:43;10.10;;;6.63;;
44816;SDS011;30529;53.570;9.964;2022-12-18T00:58:11;14.53;;;7.60;;
44816;SDS011;30529;53.570;9.964;2022-12-18T01:00:39;11.90;;;7.73;;
44816;SDS011;30529;53.570;9.964;2022-12-18T01:03:05;15.63;;;7.57;;
44816;SDS011;30529;53.570;9.964;2022-12-18T01:05:32;14.70;;;8.03;;
44816;SDS011;30529;53.570;9.964;2022-12-18T01:07:58;14.10;;;7.60;;
44816;SDS011;30529;53.570;9.964;2022-12-18T01:10:24;15.77;;;7.33;;
44816;SDS011;30529;53.570;9.964;2022-12-18T01:12:51;11.93;;;7.30;;
44816;SDS011;30529;53.570;9.964;2022-12-18T01:15:17;11.97;;;6.97;;
44816;SDS011;30529;53.570;9.964;2022-12-18T01:17:43;11.83;;;7.50;;
44816;SDS011;30529;53.570;9.964;2022-12-18T01:20:10;13.83;;;7.57;;
44816;SDS011;30529;53.570;9.964;2022-12-18T01:22:37;13.57;;;6.97;;
44816;SDS011;30529;53.570;9.964;2022-12-18T01:25:03;12.13;;;7.03;;
44816;SDS011;30529;53.570;9.964;2022-12-18T01:27:31;12.30;;;7.80;;
44816;SDS011;30529;53.570;9.964;2022-12-18T01:29:58;12.40;;;6.83;;
44816;SDS011;30529;53.570;9.964;2022-12-18T01:32:24;13.87;;;7.37;;
44816;SDS011;30529;53.570;9.964;2022-12-18T01:34:50;16.33;;;7.23;;
44816;SDS011;30529;53.570;9.964;2022-12-18T01:37:16;15.67;;;7.13;;
44816;SDS011;30529;53.570;9.964;2022-12-18T01:39:42;12.70;;;7.40;;
44816;SDS011;30529;53.570;9.964;2022-12-18T01:42:12;13.03;;;6.90;;
44816;SDS011;30529;53.570;9.964;2022-12-18T01:45:00;11.37;;;7.60;;
44816;SDS011;30529;53.570;9.964;2022-12-18T01:49:58;13.67;;;7.77;;
44816;SDS011;30529;53.570;9.964;2022-12-18T01:52:28;15.10;;;6.57;;
44816;SDS011;30529;53.570;9.964;2022-12-18T01:54:57;11.10;;;6.83;;
44816;SDS011;30529;53.570;9.964;2022-12-18T01:57:24;13.23;;;6.80;;
44816;SDS011;30529;53.570;9.964;2022-12-18T01:59:52;12.73;;;6.77;;
44816;SDS011;30529;53.570;9.964;2022-12-18T02:02:20;12.60;;;7.03;;
44816;SDS011;30529;53.570;9.964;2022-12-18T02:04:46;9.17;;;6.93;;
44816;SDS011;30529;53.570;9.964;2022-12-18T02:10:00;17.47;;;7.67;;
44816;SDS011;30529;53.570;9.964;2022-12-18T02:12:58;8.83;;;5.90;;
44816;SDS011;30529;53.570;9.964;2022-12-18T02:16:03;10.97;;;6.57;;
44816;SDS011;30529;53.570;9.964;2022-12-18T02:18:45;10.43;;;6.80;;
44816;SDS011;30529;53.570;9.964;2022-12-18T02:21:20;13.27;;;6.73;;
44816;SDS011;30529;53.570;9.964;2022-12-18T02:26:47;13.13;;;6.57;;
44816;SDS011;30529;53.570;9.964;2022-12-18T02:29:16;10.83;;;6.10;;
44816;SDS011;30529;53.570;9.964;2022-12-18T02:31:49;11.97;;;7.03;;
44816;SDS011;30529;53.570;9.964;2022-12-18T02:34:19;10.93;;;6.57;;
44816;SDS011;30529;53.570;9.964;2022-12-18T02:36:50;12.90;;;6.80;;
44816;SDS011;30529;53.570;9.964;2022-12-18T02:39:18;12.63;;;7.80;;
44816;SDS011;30529;53.570;9.964;2022-12-18T02:41:46;14.03;;;6.60;;
44816;SDS011;30529;53.570;9.964;2022-12-18T02:44:13;14.60;;;6.93;;
44816;SDS011;30529;53.570;9.964;2022-12-18T02:52:24;10.77;;;6.60;;
44816;SDS011;30529;53.570;9.964;2022-12-18T03:00:23;10.43;;;6.00;;
44816;SDS011;30529;53.570;9.964;2022-12-18T03:05:33;12.47;;;7.10;;
44816;SDS011;30529;53.570;9.964;2022-12-18T03:08:10;15.50;;;7.77;;
44816;SDS011;30529;53.570;9.964;2022-12-18T03:10:42;13.77;;;6.70;;
44816;SDS011;30529;53.570;9.964;2022-12-18T03:13:15;11.70;;;7.17;;
44816;SDS011;30529;53.570;9.964;2022-12-18T03:15:54;14.87;;;6.97;;
44816;SDS011;30529;53.570;9.964;2022-12-18T03:18:23;11.10;;;7.00;;
44816;SDS011;30529;53.570;9.964;2022-12-18T03:20:55;16.13;;;8.23;;
44816;SDS011;30529;53.570;9.964;2022-12-18T03:23:25;13.33;;;7.27;;
44816;SDS011;30529;53.570;9.964;2022-12-18T03:25:59;13.97;;;7.07;;
44816;SDS011;30529;53.570;9.964;2022-12-18T03:28:28;11.97;;;6.00;;
44816;SDS011;30529;53.570;9.964;2022-12-18T03:30:58;11.60;;;7.10;;
44816;SDS011;30529;53.570;9.964;2022-12-18T03:33:31;15.10;;;6.70;;
44816;SDS011;30529;53.570;9.964;2022-12-18T03:36:01;10.93;;;6.33;;
44816;SDS011;30529;53.570;9.964;2022-12-18T03:38:27;10.70;;;6.63;;
44816;SDS011;30529;53.570;9.964;2022-12-18T03:43:30;14.63;;;6.93;;
44816;SDS011;30529;53.570;9.964;2022-12-18T03:46:18;11.10;;;6.40;;
44816;SDS011;30529;53.570;9.964;2022-12-18T03:48:52;11.17;;;5.73;;
44816;SDS011;30529;53.570;9.964;2022-12-18T03:51:32;12.53;;;6.23;;
44816;SDS011;30529;53.570;9.964;2022-12-18T03:54:21;10.33;;;6.03;;
44816;SDS011;30529;53.570;9.964;2022-12-18T03:56:50;10.63;;;6.50;;
44816;SDS011;30529;53.570;9.964;2022-12-18T03:59:24;17.07;;;6.00;;
44816;SDS011;30529;53.570;9.964;2022-12-18T04:01:53;13.23;;;5.90;;
44816;SDS011;30529;53.570;9.964;2022-12-18T04:04:23;11.57;;;6.30;;
44816;SDS011;30529;53.570;9.964;2022-12-18T04:06:50;12.13;;;6.10;;
44816;SDS011;30529;53.570;9.964;2022-12-18T04:09:17;13.00;;;6.57;;
44816;SDS011;30529;53.570;9.964;2022-12-18T04:11:45;12.57;;;6.83;;
44816;SDS011;30529;53.570;9.964;2022-12-18T04:14:12;10.47;;;6.57;;
44816;SDS011;30529;53.570;9.964;2022-12-18T04:16:38;9.73;;;6.27;;
44816;SDS011;30529;53.570;9.964;2022-12-18T04:19:04;10.00;;;6.10;;
44816;SDS011;30529;53.570;9.964;2022-12-18T04:21:30;13.63;;;6.80;;
44816;SDS011;30529;53.570;9.964;2022-12-18T04:23:56;13.80;;;7.03;;
44816;SDS011;30529;53.570;9.964;2022-12-18T04:26:22;12.37;;;6.20;;
44816;SDS011;30529;53.570;9.964;2022-12-18T04:28:48;13.83;;;7.17;;
44816;SDS011;30529;53.570;9.964;2022-12-18T04:31:14;12.73;;;7.00;;
44816;SDS011;30529;53.570;9.964;2022-12-18T04:33:40;12.60;;;6.37;;
44816;SDS011;30529;53.570;9.964;2022-12-18T04:36:06;11.40;;;6.33;;
44816;SDS011;30529;53.570;9.964;2022-12-18T04:38:32;11.30;;;6.57;;
44816;SDS011;30529;53.570;9.964;2022-12-18T04:40:58;13.60;;;6.80;;
44816;SDS011;30529;53.570;9.964;2022-12-18T04:43:24;14.17;;;6.50;;
44816;SDS011;30529;53.570;9.964;2022-12-18T04:45:50;10.47;;;5.97;;
44816;SDS011;30529;53.570;9.964;2022-12-18T04:48:16;13.57;;;6.97;;
44816;SDS011;30529;53.570;9.964;2022-12-18T04:50:42;14.47;;;6.73;;
44816;SDS011;30529;53.570;9.964;2022-12-18T04:53:08;11.93;;;6.53;;
44816;SDS011;30529;53.570;9.964;2022-12-18T04:55:34;14.53;;;6.70;;
44816;SDS011;30529;53.570;9.964;2022-12-18T04:57:59;11.27;;;7.23;;
44816;SDS011;30529;53.570;9.964;2022-12-18T05:00:26;9.87;;;6.07;;
44816;SDS011;30529;53.570;9.964;2022-12-18T05:02:52;11.43;;;6.77;;
44816;SDS011;30529;53.570;9.964;2022-12-18T05:05:18;12.27;;;6.47;;
44816;SDS011;30529;53.570;9.964;2022-12-18T05:07:44;11.23;;;6.47;;
44816;SDS011;30529;53.570;9.964;2022-12-18T05:10:10;12.13;;;6.53;;
44816;SDS011;30529;53.570;9.964;2022-12-18T05:12:36;13.10;;;7.07;;
44816;SDS011;30529;53.570;9.964;2022-12-18T05:15:23;11.77;;;6.70;;
44816;SDS011;30529;53.570;9.964;2022-12-18T05:17:53;11.43;;;6.27;;
44816;SDS011;30529;53.570;9.964;2022-12-18T05:20:19;13.73;;;6.93;;
44816;SDS011;30529;53.570;9.964;2022-12-18T05:22:45;10.93;;;7.20;;
44816;SDS011;30529;53.570;9.964;2022-12-18T05:25:11;9.60;;;6.07;;
44816;SDS011;30529;53.570;9.964;2022-12-18T05:27:37;15.03;;;6.50;;
44816;SDS011;30529;53.570;9.964;2022-12-18T05:30:03;13.10;;;6.47;;
44816;SDS011;30529;53.570;9.964;2022-12-18T05:32:29;9.70;;;6.27;;
44816;SDS011;30529;53.570;9.964;2022-12-18T05:34:55;11.80;;;5.83;;
44816;SDS011;30529;53.570;9.964;2022-12-18T05:37:22;10.37;;;5.67;;
44816;SDS011;30529;53.570;9.964;2022-12-18T05:39:48;10.30;;;6.53;;
44816;SDS011;30529;53.570;9.964;2022-12-18T05:42:14;12.03;;;6.17;;
44816;SDS011;30529;53.570;9.964;2022-12-18T05:44:40;12.03;;;6.20;;
44816;SDS011;30529;53.570;9.964;2022-12-18T05:47:06;11.97;;;6.87;;
44816;SDS011;30529;53.570;9.964;2022-12-18T05:49:32;11.50;;;6.20;;
44816;SDS011;30529;53.570;9.964;2022-12-18T05:51:58;9.53;;;5.97;;
44816;SDS011;30529;53.570;9.964;2022-12-18T05:54:26;11.30;;;6.33;;
44816;SDS011;30529;53.570;9.964;2022-12-18T05:56:53;9.50;;;6.23;;
44816;SDS011;30529;53.570;9.964;2022-12-18T05:59:19;10.00;;;6.63;;
44816;SDS011;30529;53.570;9.964;2022-12-18T06:01:45;13.03;;;6.63;;
44816;SDS011;30529;53.570;9.964;2022-12-18T06:04:11;8.90;;;5.50;;
44816;SDS011;30529;53.570;9.964;2022-12-18T06:06:38;13.77;;;6.00;;
44816;SDS011;30529;53.570;9.964;2022-12-18T06:09:03;10.50;;;6.07;;
44816;SDS011;30529;53.570;9.964;2022-12-18T06:11:34;11.70;;;6.23;;
44816;SDS011;30529;53.570;9.964;2022-12-18T06:14:01;14.30;;;6.30;;
44816;SDS011;30529;53.570;9.964;2022-12-18T06:16:27;11.77;;;5.87;;
44816;SDS011;30529;53.570;9.964;2022-12-18T06:19:00;11.23;;;5.97;;
44816;SDS011;30529;53.570;9.964;2022-12-18T06:21:27;14.90;;;7.03;;
44816;SDS011;30529;53.570;9.964;2022-12-18T06:23:54;11.23;;;6.37;;
44816;SDS011;30529;53.570;9.964;2022-12-18T06:26:20;13.53;;;8.20;;
44816;SDS011;30529;53.570;9.964;2022-12-18T06:28:47;13.70;;;7.43;;
44816;SDS011;30529;53.570;9.964;2022-12-18T06:31:13;17.07;;;6.87;;
44816;SDS011;30529;53.570;9.964;2022-12-18T06:33:39;11.67;;;6.20;;
44816;SDS011;30529;53.570;9.964;2022-12-18T06:36:06;11.20;;;6.27;;
44816;SDS011;30529;53.570;9.964;2022-12-18T06:38:34;10.27;;;6.20;;
44816;SDS011;30529;53.570;9.964;2022-12-18T06:41:08;12.90;;;6.67;;
44816;SDS011;30529;53.570;9.964;2022-12-18T06:43:35;13.63;;;8.50;;
44816;SDS011;30529;53.570;9.964;2022-12-18T06:46:02;12.23;;;6.30;;
44816;SDS011;30529;53.570;9.964;2022-12-18T06:48:29;10.50;;;6.53;;
44816;SDS011;30529;53.570;9.964;2022-12-18T06:50:56;10.37;;;5.97;;
44816;SDS011;30529;53.570;9.964;2022-12-18T06:53:22;10.97;;;5.90;;
44816;SDS011;30529;53.570;9.964;2022-12-18T06:55:48;11.63;;;6.70;;
44816;SDS011;30529;53.570;9.964;2022-12-18T06:58:14;9.77;;;5.53;;
44816;SDS011;30529;53.570;9.964;2022-12-18T07:00:40;12.47;;;6.40;;
44816;SDS011;30529;53.570;9.964;2022-12-18T07:03:06;12.03;;;6.30;;
44816;SDS011;30529;53.570;9.964;2022-12-18T07:05:32;11.47;;;6.17;;
44816;SDS011;30529;53.570;9.964;2022-12-18T07:07:58;11.73;;;6.13;;
44816;SDS011;30529;53.570;9.964;2022-12-18T07:10:24;10.60;;;6.63;;
44816;SDS011;30529;53.570;9.964;2022-12-18T07:12:51;10.70;;;6.13;;
44816;SDS011;30529;53.570;9.964;2022-12-18T07:15:16;10.70;;;5.87;;
44816;SDS011;30529;53.570;9.964;2022-12-18T07:17:43;12.27;;;6.37;;
44816;SDS011;30529;53.570;9.964;2022-12-18T07:20:09;14.07;;;7.20;;
44816;SDS011;30529;53.570;9.964;2022-12-18T07:22:35;9.70;;;6.67;;
44816;SDS011;30529;53.570;9.964;2022-12-18T07:25:01;15.97;;;7.40;;
44816;SDS011;30529;53.570;9.964;2022-12-18T07:27:27;13.00;;;6.93;;
44816;SDS011;30529;53.570;9.964;2022-12-18T07:29:53;12.17;;;7.03;;
44816;SDS011;30529;53.570;9.964;2022-12-18T07:32:20;10.23;;;6.37;;
44816;SDS011;30529;53.570;9.964;2022-12-18T07:34:46;12.20;;;6.40;;
44816;SDS011;30529;53.570;9.964;2022-12-18T07:37:12;11.27;;;6.27;;
44816;SDS011;30529;53.570;9.964;2022-12-18T07:39:38;10.90;;;6.53;;
44816;SDS011;30529;53.570;9.964;2022-12-18T07:42:04;10.70;;;7.03;;
44816;SDS011;30529;53.570;9.964;2022-12-18T07:44:49;10.80;;;6.83;;
44816;SDS011;30529;53.570;9.964;2022-12-18T07:47:14;13.20;;;6.77;;
44816;SDS011;30529;53.570;9.964;2022-12-18T07:49:40;10.50;;;6.23;;
44816;SDS011;30529;53.570;9.964;2022-12-18T07:52:06;15.40;;;6.97;;
44816;SDS011;30529;53.570;9.964;2022-12-18T07:54:33;16.10;;;7.83;;
44816;SDS011;30529;53.570;9.964;2022-12-18T07:56:59;12.50;;;6.77;;
44816;SDS011;30529;53.570;9.964;2022-12-18T07:59:25;11.57;;;6.40;;
44816;SDS011;30529;53.570;9.964;2022-12-18T08:01:51;13.00;;;7.17;;
44816;SDS011;30529;53.570;9.964;2022-12-18T08:04:17;17.53;;;8.20;;
44816;SDS011;30529;53.570;9.964;2022-12-18T08:06:43;16.37;;;8.07;;
44816;SDS011;30529;53.570;9.964;2022-12-18T08:09:09;13.87;;;6.77;;
44816;SDS011;30529;53.570;9.964;2022-12-18T08:11:35;11.77;;;6.30;;
44816;SDS011;30529;53.570;9.964;2022-12-18T08:14:01;11.83;;;7.33;;
44816;SDS011;30529;53.570;9.964;2022-12-18T08:16:27;14.20;;;7.73;;
44816;SDS011;30529;53.570;9.964;2022-12-18T08:18:53;12.83;;;6.43;;
44816;SDS011;30529;53.570;9.964;2022-12-18T08:21:20;9.97;;;6.23;;
44816;SDS011;30529;53.570;9.964;2022-12-18T08:23:49;16.50;;;6.50;;
44816;SDS011;30529;53.570;9.964;2022-12-18T08:26:16;10.13;;;6.50;;
44816;SDS011;30529;53.570;9.964;2022-12-18T08:28:42;12.63;;;7.17;;
44816;SDS011;30529;53.570;9.964;2022-12-18T08:31:08;12.67;;;7.00;;
44816;SDS011;30529;53.570;9.964;2022-12-18T08:33:35;12.97;;;7.37;;
44816;SDS011;30529;53.570;9.964;2022-12-18T08:36:03;15.97;;;7.27;;
44816;SDS011;30529;53.570;9.964;2022-12-18T08:38:30;12.33;;;7.20;;
44816;SDS011;30529;53.570;9.964;2022-12-18T08:43:27;15.20;;;6.87;;
44816;SDS011;30529;53.570;9.964;2022-12-18T08:46:12;12.60;;;6.90;;
44816;SDS011;30529;53.570;9.964;2022-12-18T08:48:38;11.47;;;7.27;;
44816;SDS011;30529;53.570;9.964;2022-12-18T08:51:04;11.53;;;7.30;;
44816;SDS011;30529;53.570;9.964;2022-12-18T08:53:30;13.83;;;7.43;;
44816;SDS011;30529;53.570;9.964;2022-12-18T08:55:56;13.20;;;7.00;;
44816;SDS011;30529;53.570;9.964;2022-12-18T08:58:22;13.57;;;7.90;;
44816;SDS011;30529;53.570;9.964;2022-12-18T09:00:48;12.97;;;7.57;;
44816;SDS011;30529;53.570;9.964;2022-12-18T09:03:15;10.70;;;6.93;;
44816;SDS011;30529;53.570;9.964;2022-12-18T09:05:42;13.93;;;7.33;;
44816;SDS011;30529;53.570;9.964;2022-12-18T09:08:09;14.17;;;6.90;;
44816;SDS011;30529;53.570;9.964;2022-12-18T09:10:40;13.17;;;6.90;;
44816;SDS011;30529;53.570;9.964;2022-12-18T09:13:09;12.47;;;7.50;;
44816;SDS011;30529;53.570;9.964;2022-12-18T09:15:40;13.57;;;6.60;;
44816;SDS011;30529;53.570;9.964;2022-12-18T09:18:14;12.90;;;6.77;;
44816;SDS011;30529;53.570;9.964;2022-12-18T09:20:41;11.33;;;6.73;;
44816;SDS011;30529;53.570;9.964;2022-12-18T09:23:07;13.10;;;6.40;;
44816;SDS011;30529;53.570;9.964;2022-12-18T09:25:34;12.33;;;6.80;;
44816;SDS011;30529;53.570;9.964;2022-12-18T09:28:11;14.13;;;7.03;;
44816;SDS011;30529;53.570;9.964;2022-12-18T09:30:43;13.03;;;7.10;;
44816;SDS011;30529;53.570;9.964;2022-12-18T09:33:11;15.53;;;8.30;;
44816;SDS011;30529;53.570;9.964;2022-12-18T09:35:37;11.07;;;7.13;;
44816;SDS011;30529;53.570;9.964;2022-12-18T09:38:08;12.37;;;7.03;;
44816;SDS011;30529;53.570;9.964;2022-12-18T09:40:42;14.47;;;6.87;;
44816;SDS011;30529;53.570;9.964;2022-12-18T09:43:24;14.30;;;6.83;;
44816;SDS011;30529;53.570;9.964;2022-12-18T09:45:58;11.13;;;6.83;;
44816;SDS011;30529;53.570;9.964;2022-12-18T09:48:31;12.00;;;7.20;;
44816;SDS011;30529;53.570;9.964;2022-12-18T09:51:05;15.40;;;7.53;;
44816;SDS011;30529;53.570;9.964;2022-12-18T09:53:37;12.07;;;6.53;;
44816;SDS011;30529;53.570;9.964;2022-12-18T09:56:05;11.57;;;7.40;;
44816;SDS011;30529;53.570;9.964;2022-12-18T09:59:03;14.07;;;6.53;;
44816;SDS011;30529;53.570;9.964;2022-12-18T10:01:29;12.93;;;7.63;;
44816;SDS011;30529;53.570;9.964;2022-12-18T10:03:56;13.33;;;7.43;;
44816;SDS011;30529;53.570;9.964;2022-12-18T10:06:27;17.33;;;8.10;;
44816;SDS011;30529;53.570;9.964;2022-12-18T10:15:34;11.37;;;7.03;;
44816;SDS011;30529;53.570;9.964;2022-12-18T10:18:14;15.20;;;7.07;;
44816;SDS011;30529;53.570;9.964;2022-12-18T10:20:56;12.17;;;6.83;;
44816;SDS011;30529;53.570;9.964;2022-12-18T10:23:44;11.43;;;6.73;;
44816;SDS011;30529;53.570;9.964;2022-12-18T10:26:13;13.50;;;6.63;;
44816;SDS011;30529;53.570;9.964;2022-12-18T10:28:40;13.93;;;7.23;;
44816;SDS011;30529;53.570;9.964;2022-12-18T10:31:16;13.97;;;6.90;;
44816;SDS011;30529;53.570;9.964;2022-12-18T10:33:45;12.53;;;6.17;;
44816;SDS011;30529;53.570;9.964;2022-12-18T10:36:11;12.87;;;7.30;;
44816;SDS011;30529;53.570;9.964;2022-12-18T10:38:38;12.83;;;6.20;;
44816;SDS011;30529;53.570;9.964;2022-12-18T10:41:05;12.83;;;7.00;;
44816;SDS011;30529;53.570;9.964;2022-12-18T10:46:35;12.60;;;6.77;;
44816;SDS011;30529;53.570;9.964;2022-12-18T10:49:02;12.90;;;7.30;;
44816;SDS011;30529;53.570;9.964;2022-12-18T10:51:32;15.57;;;7.70;;
44816;SDS011;30529;53.570;9.964;2022-12-18T10:56:26;14.40;;;8.23;;
44816;SDS011;30529;53.570;9.964;2022-12-18T10:58:57;12.90;;;7.70;;
44816;SDS011;30529;53.570;9.964;2022-12-18T11:04:20;16.20;;;7.33;;
44816;SDS011;30529;53.570;9.964;2022-12-18T11:09:29;12.37;;;7.10;;
44816;SDS011;30529;53.570;9.964;2022-12-18T11:12:01;16.63;;;8.20;;
44816;SDS011;30529;53.570;9.964;2022-12-18T11:20:27;10.07;;;6.70;;
44816;SDS011;30529;53.570;9.964;2022-12-18T11:23:04;13.10;;;7.27;;
44816;SDS011;30529;53.570;9.964;2022-12-18T11:25:38;10.60;;;6.80;;
44816;SDS011;30529;53.570;9.964;2022-12-18T11:28:06;13.07;;;7.10;;
44816;SDS011;30529;53.570;9.964;2022-12-18T11:34:04;13.20;;;8.23;;
44816;SDS011;30529;53.570;9.964;2022-12-18T11:36:44;11.33;;;6.77;;
44816;SDS011;30529;53.570;9.964;2022-12-18T11:39:23;12.00;;;7.47;;
44816;SDS011;30529;53.570;9.964;2022-12-18T11:42:03;14.37;;;8.03;;
44816;SDS011;30529;53.570;9.964;2022-12-18T11:44:42;15.17;;;7.17;;
44816;SDS011;30529;53.570;9.964;2022-12-18T11:50:00;12.20;;;6.53;;
44816;SDS011;30529;53.570;9.964;2022-12-18T11:52:38;11.90;;;7.47;;
44816;SDS011;30529;53.570;9.964;2022-12-18T11:55:13;15.97;;;9.10;;
44816;SDS011;30529;53.570;9.964;2022-12-18T11:58:00;16.23;;;8.17;;
44816;SDS011;30529;53.570;9.964;2022-12-18T12:00:39;15.87;;;9.23;;
44816;SDS011;30529;53.570;9.964;2022-12-18T12:03:27;15.23;;;8.37;;
44816;SDS011;30529;53.570;9.964;2022-12-18T12:06:45;18.83;;;10.03;;
44816;SDS011;30529;53.570;9.964;2022-12-18T12:09:29;20.77;;;9.07;;
44816;SDS011;30529;53.570;9.964;2022-12-18T12:12:10;19.00;;;10.17;;
44816;SDS011;30529;53.570;9.964;2022-12-18T12:15:13;18.07;;;9.37;;
44816;SDS011;30529;53.570;9.964;2022-12-18T12:20:55;19.13;;;9.13;;
44816;SDS011;30529;53.570;9.964;2022-12-18T12:26:20;17.70;;;9.27;;
44816;SDS011;30529;53.570;9.964;2022-12-18T12:32:14;17.43;;;9.63;;
44816;SDS011;30529;53.570;9.964;2022-12-18T12:40:35;19.83;;;9.30;;
44816;SDS011;30529;53.570;9.964;2022-12-18T12:43:19;18.50;;;8.80;;
44816;SDS011;30529;53.570;9.964;2022-12-18T12:46:06;18.47;;;9.77;;
44816;SDS011;30529;53.570;9.964;2022-12-18T12:48:41;17.97;;;8.73;;
44816;SDS011;30529;53.570;9.964;2022-12-18T12:51:18;14.60;;;8.67;;
44816;SDS011;30529;53.570;9.964;2022-12-18T12:53:54;17.17;;;8.90;;
44816;SDS011;30529;53.570;9.964;2022-12-18T12:56:22;16.43;;;9.03;;
44816;SDS011;30529;53.570;9.964;2022-12-18T12:59:02;19.17;;;9.27;;
44816;SDS011;30529;53.570;9.964;2022-12-18T13:02:28;15.47;;;8.63;;
44816;SDS011;30529;53.570;9.964;2022-12-18T13:04:42;18.50;;;9.23;;
44816;SDS011;30529;53.570;9.964;2022-12-18T13:10:12;15.20;;;8.93;;
44816;SDS011;30529;53.570;9.964;2022-12-18T13:13:04;15.40;;;8.43;;
44816;SDS011;30529;53.570;9.964;2022-12-18T13:18:32;15.33;;;8.73;;
44816;SDS011;30529;53.570;9.964;2022-12-18T13:21:04;16.27;;;9.30;;
44816;SDS011;30529;53.570;9.964;2022-12-18T13:23:45;19.87;;;9.83;;
44816;SDS011;30529;53.570;9.964;2022-12-18T13:30:02;17.93;;;8.70;;
44816;SDS011;30529;53.570;9.964;2022-12-18T13:38:22;20.13;;;10.27;;
44816;SDS011;30529;53.570;9.964;2022-12-18T13:46:29;22.93;;;11.83;;
44816;SDS011;30529;53.570;9.964;2022-12-18T13:52:16;21.67;;;10.93;;
44816;SDS011;30529;53.570;9.964;2022-12-18T13:54:51;22.97;;;10.43;;
44816;SDS011;30529;53.570;9.964;2022-12-18T13:57:33;21.43;;;11.07;;
44816;SDS011;30529;53.570;9.964;2022-12-18T14:00:16;23.27;;;11.37;;
44816;SDS011;30529;53.570;9.964;2022-12-18T14:02:55;22.30;;;11.30;;
44816;SDS011;30529;53.570;9.964;2022-12-18T14:05:24;23.23;;;12.00;;
44816;SDS011;30529;53.570;9.964;2022-12-18T14:08:11;21.83;;;11.33;;
44816;SDS011;30529;53.570;9.964;2022-12-18T14:10:40;22.13;;;10.57;;
44816;SDS011;30529;53.570;9.964;2022-12-18T14:13:13;21.10;;;10.07;;
44816;SDS011;30529;53.570;9.964;2022-12-18T14:15:45;24.20;;;11.10;;
44816;SDS011;30529;53.570;9.964;2022-12-18T14:20:46;19.77;;;10.10;;
44816;SDS011;30529;53.570;9.964;2022-12-18T14:23:29;27.90;;;12.00;;
44816;SDS011;30529;53.570;9.964;2022-12-18T14:26:01;26.37;;;11.43;;
44816;SDS011;30529;53.570;9.964;2022-12-18T14:28:28;21.37;;;11.30;;
44816;SDS011;30529;53.570;9.964;2022-12-18T14:30:54;22.17;;;11.40;;
44816;SDS011;30529;53.570;9.964;2022-12-18T14:33:22;22.13;;;11.20;;
44816;SDS011;30529;53.570;9.964;2022-12-18T14:36:00;22.90;;;11.33;;
44816;SDS011;30529;53.570;9.964;2022-12-18T14:38:37;27.67;;;11.77;;
44816;SDS011;30529;53.570;9.964;2022-12-18T14:41:16;25.97;;;11.73;;
44816;SDS011;30529;53.570;9.964;2022-12-18T14:43:44;21.67;;;12.00;;
44816;SDS011;30529;53.570;9.964;2022-12-18T14:49:02;21.03;;;11.07;;
44816;SDS011;30529;53.570;9.964;2022-12-18T14:51:32;29.87;;;12.87;;
44816;SDS011;30529;53.570;9.964;2022-12-18T14:54:03;25.40;;;11.47;;
44816;SDS011;30529;53.570;9.964;2022-12-18T14:56:43;28.90;;;12.00;;
44816;SDS011;30529;53.570;9.964;2022-12-18T14:59:21;28.13;;;12.67;;
44816;SDS011;30529;53.570;9.964;2022-12-18T15:01:57;26.13;;;12.03;;
44816;SDS011;30529;53.570;9.964;2022-12-18T15:04:30;25.67;;;12.67;;
44816;SDS011;30529;53.570;9.964;2022-12-18T15:09:35;29.38;;;14.25;;
44816;SDS011;30529;53.570;9.964;2022-12-18T15:12:01;24.47;;;12.30;;
44816;SDS011;30529;53.570;9.964;2022-12-18T15:14:30;27.50;;;11.93;;
44816;SDS011;30529;53.570;9.964;2022-12-18T15:16:57;26.27;;;12.33;;
44816;SDS011;30529;53.570;9.964;2022-12-18T15:19:35;24.10;;;12.47;;
44816;SDS011;30529;53.570;9.964;2022-12-18T15:22:11;23.13;;;11.60;;
44816;SDS011;30529;53.570;9.964;2022-12-18T15:24:44;25.53;;;12.23;;
44816;SDS011;30529;53.570;9.964;2022-12-18T15:27:23;29.53;;;12.77;;
44816;SDS011;30529;53.570;9.964;2022-12-18T15:32:33;28.53;;;13.27;;
44816;SDS011;30529;53.570;9.964;2022-12-18T15:35:09;26.70;;;13.23;;
44816;SDS011;30529;53.570;9.964;2022-12-18T15:37:43;30.70;;;13.80;;
44816;SDS011;30529;53.570;9.964;2022-12-18T15:40:22;24.10;;;12.37;;
44816;SDS011;30529;53.570;9.964;2022-12-18T15:42:50;29.17;;;11.93;;
44816;SDS011;30529;53.570;9.964;2022-12-18T15:45:38;26.53;;;13.37;;
44816;SDS011;30529;53.570;9.964;2022-12-18T15:48:17;28.87;;;12.77;;
44816;SDS011;30529;53.570;9.964;2022-12-18T15:50:46;28.77;;;13.40;;
44816;SDS011;30529;53.570;9.964;2022-12-18T15:53:13;24.40;;;11.77;;
44816;SDS011;30529;53.570;9.964;2022-12-18T15:55:39;30.00;;;12.80;;
44816;SDS011;30529;53.570;9.964;2022-12-18T15:58:23;30.77;;;12.83;;
44816;SDS011;30529;53.570;9.964;2022-12-18T16:00:49;26.83;;;12.20;;
44816;SDS011;30529;53.570;9.964;2022-12-18T16:03:15;26.40;;;12.00;;
44816;SDS011;30529;53.570;9.964;2022-12-18T16:05:41;26.60;;;13.30;;
44816;SDS011;30529;53.570;9.964;2022-12-18T16:08:07;28.53;;;14.10;;
44816;SDS011;30529;53.570;9.964;2022-12-18T16:10:33;29.77;;;13.30;;
44816;SDS011;30529;53.570;9.964;2022-12-18T16:13:00;27.80;;;12.77;;
44816;SDS011;30529;53.570;9.964;2022-12-18T16:15:26;23.70;;;12.10;;
44816;SDS011;30529;53.570;9.964;2022-12-18T16:17:52;26.30;;;12.57;;
44816;SDS011;30529;53.570;9.964;2022-12-18T16:20:20;22.20;;;11.83;;
44816;SDS011;30529;53.570;9.964;2022-12-18T16:22:47;24.90;;;11.90;;
44816;SDS011;30529;53.570;9.964;2022-12-18T16:25:19;24.73;;;11.50;;
44816;SDS011;30529;53.570;9.964;2022-12-18T16:27:51;29.33;;;12.70;;
44816;SDS011;30529;53.570;9.964;2022-12-18T16:30:19;25.70;;;12.10;;
44816;SDS011;30529;53.570;9.964;2022-12-18T16:32:56;30.23;;;12.13;;
44816;SDS011;30529;53.570;9.964;2022-12-18T16:35:23;27.30;;;12.07;;
44816;SDS011;30529;53.570;9.964;2022-12-18T16:37:50;26.07;;;13.10;;
44816;SDS011;30529;53.570;9.964;2022-12-18T16:40:16;26.47;;;12.03;;
44816;SDS011;30529;53.570;9.964;2022-12-18T16:42:44;27.00;;;12.77;;